Cmb Kristine — VRJF4 — position and weather

sailwx.info

Track history (hours):
 
Tides and Currents Weather Stations Pressure Air Temp Water Temp Dewpoint Dewpoint Depression Visibility Wind Speed Wind Dir Waves Ship Positions

Cmb Kristine

Last reported at 2017-Oct-18 23:30 UTC. Time now 2017-Oct-18 23:40 UTC.
Position N 31°22' E 032°19'.

Length 180 m; draft 9.9 m.

Type: Cargo ship. MMSI: 477346300.

Date/timePositionNaut miles runAvg speedWind from/ knotsBaromVisibWave heightAir tempDewpointWater temp
2017-Oct-18 23:30N 31°22' E 032°19'0 0.1
2017-Oct-18 21:13N 31°22' E 032°19'0 0.0
2017-Oct-18 20:52N 31°22' E 032°19'0 0.0
2017-Oct-18 12:37N 31°22' E 032°19'0 0.0
2017-Oct-18 12:25N 31°22' E 032°19'  
2017-Oct-15 02:06N 36°11' E 014°53'112.7
2017-Oct-15 02:00N 36°11' E 014°52'612.9
2017-Oct-15 01:30N 36°14' E 014°45'612.9
2017-Oct-15 01:00N 36°16' E 014°37'712.9
2017-Oct-15 00:30N 36°18' E 014°29'613.0
2017-Oct-15 00:00N 36°20' E 014°22'712.9
2017-Oct-14 23:30N 36°22' E 014°14'613.0
2017-Oct-14 23:00N 36°24' E 014°06'713.0
2017-Oct-14 22:30N 36°27' E 013°59'613.1
2017-Oct-14 22:00N 36°29' E 013°51'713.0
2017-Oct-14 21:27N 36°31' E 013°43'612.9
2017-Oct-14 21:00N 36°33' E 013°36'4412.7
2017-Oct-14 17:33N 36°47' E 012°45'412.7
2017-Oct-14 17:15N 36°49' E 012°40'30012.1
2017-Oct-13 16:34N 37°24' E 006°27'3212.3
2017-Oct-13 13:57N 37°22' E 005°47'712.2
2017-Oct-13 13:22N 37°22' E 005°38'612.1
2017-Oct-13 12:51N 37°21' E 005°30'12112.5
2017-Oct-13 03:08N 37°14' E 002°58'212.6
2017-Oct-13 02:58N 37°14' E 002°55'612.4
2017-Oct-13 02:30N 37°13' E 002°48'612.2
2017-Oct-13 02:00N 37°12' E 002°40'712.3
2017-Oct-13 01:27N 37°11' E 002°32'912.5
2017-Oct-13 00:45N 37°09' E 002°21'312.5
2017-Oct-13 00:29N 37°09' E 002°17'612.3
2017-Oct-12 23:58N 37°07' E 002°09'612.5
2017-Oct-12 23:30N 37°06' E 002°02'612.5
2017-Oct-12 23:00N 37°04' E 001°55'712.4
2017-Oct-12 22:27N 37°02' E 001°46'1112.3
2017-Oct-12 21:32N 37°01' E 001°33'012.2
2017-Oct-12 21:30N 37°01' E 001°32'612.3
2017-Oct-12 21:00N 36°60' E 001°25'612.4
2017-Oct-12 20:30N 36°59' E 001°17'612.1
2017-Oct-12 19:59N 36°57' E 001°09'612.0
2017-Oct-12 19:30N 36°56' E 001°02'612.0
2017-Oct-12 19:00N 36°55' E 000°55'611.9
2017-Oct-12 18:30N 36°53' E 000°48'612.2
2017-Oct-12 18:00N 36°52' E 000°40'612.4
2017-Oct-12 17:30N 36°50' E 000°33'612.3
2017-Oct-12 17:00N 36°49' E 000°25'612.5
2017-Oct-12 16:30N 36°47' E 000°18'612.6
2017-Oct-12 16:00N 36°45' E 000°10'612.6
2017-Oct-12 15:30N 36°44' E 000°03'612.5
2017-Oct-12 15:00N 36°42' W 000°05'712.4
2017-Oct-12 14:29N 36°40' W 000°12'612.4
2017-Oct-12 14:00N 36°38' W 000°20'612.6
2017-Oct-12 13:30N 36°37' W 000°27'612.6
2017-Oct-12 13:00N 36°35' W 000°35'712.6
2017-Oct-12 12:27N 36°33' W 000°43'1412.6
2017-Oct-12 11:18N 36°29' W 001°00'1612.7
2017-Oct-12 10:01N 36°25' W 001°20'213.1
2017-Oct-12 09:50N 36°25' W 001°23'18412.8
2017-Oct-11 19:29N 36°03' W 005°10'613.2
2017-Oct-11 19:00N 36°03' W 005°17'5 8.5
2017-Oct-11 18:28N 36°07' W 005°21'66 3.2
2017-Oct-10 21:24N 35°51' W 006°41'511.5
2017-Oct-10 21:01N 35°50' W 006°47'611.9
2017-Oct-10 20:30N 35°49' W 006°54'612.3
2017-Oct-10 20:00N 35°48' W 007°01'612.3
2017-Oct-10 19:31N 35°46' W 007°09'612.4
2017-Oct-10 19:01N 35°45' W 007°16'612.5
2017-Oct-10 18:31N 35°44' W 007°24'712.7
2017-Oct-10 18:00N 35°43' W 007°32'612.6
2017-Oct-10 17:29N 35°43' W 007°40'612.4
2017-Oct-10 17:00N 35°42' W 007°47'612.4
2017-Oct-10 16:30N 35°41' W 007°55'612.4
2017-Oct-10 16:00N 35°39' W 008°02'612.6
2017-Oct-10 15:30N 35°38' W 008°10'612.7
2017-Oct-10 15:00N 35°37' W 008°17'1312.7
2017-Oct-10 14:00N 35°35' W 008°33'612.7
2017-Oct-10 13:30N 35°34' W 008°40'612.4
2017-Oct-10 13:01N 35°33' W 008°48'612.1
2017-Oct-10 12:29N 35°32' W 008°55'612.1
2017-Oct-10 11:59N 35°31' W 009°03'611.9
2017-Oct-10 11:31N 35°31' W 009°10'611.7
2017-Oct-10 11:00N 35°30' W 009°17'611.8
2017-Oct-10 10:30N 35°30' W 009°24'611.9
2017-Oct-10 10:01N 35°29' W 009°31'612.0
2017-Oct-10 09:31N 35°27' W 009°38'612.2
2017-Oct-10 09:00N 35°26' W 009°46'612.2
2017-Oct-10 08:30N 35°25' W 009°53'612.1
2017-Oct-10 08:00N 35°24' W 010°00'612.1
2017-Oct-10 07:31N 35°23' W 010°08'612.2
2017-Oct-10 07:01N 35°21' W 010°15'612.4
2017-Oct-10 06:30N 35°20' W 010°22'612.6
2017-Oct-10 06:00N 35°19' W 010°30'612.6
2017-Oct-10 05:30N 35°18' W 010°38'612.5
2017-Oct-10 05:00N 35°17' W 010°45'712.3
2017-Oct-10 04:26N 35°16' W 010°54'512.5
2017-Oct-10 04:00N 35°15' W 011°00'612.5
2017-Oct-10 03:30N 35°14' W 011°08'612.5
2017-Oct-10 03:00N 35°13' W 011°15'612.4
2017-Oct-10 02:30N 35°12' W 011°23'612.4
2017-Oct-10 02:00N 35°11' W 011°30'612.4
2017-Oct-10 01:30N 35°10' W 011°38'612.4
2017-Oct-10 01:00N 35°08' W 011°45'611.9
2017-Oct-10 00:30N 35°07' W 011°52'612.0
2017-Oct-10 00:01N 35°07' W 011°59'612.4
2017-Oct-09 23:30N 35°05' W 012°07'612.5
2017-Oct-09 23:01N 35°04' W 012°14'612.4
2017-Oct-09 22:30N 35°03' W 012°22'612.4
2017-Oct-09 22:00N 35°02' W 012°29'612.1
2017-Oct-09 21:28N 35°01' W 012°37'612.0
2017-Oct-09 21:00N 35°00' W 012°44'612.1
2017-Oct-09 20:30N 34°59' W 012°51'612.2
2017-Oct-09 20:00N 34°58' W 012°58'612.3
2017-Oct-09 19:30N 34°57' W 013°06'1212.4
2017-Oct-09 18:33N 34°55' W 013°20'11512.2
2017-Oct-09 09:08N 34°36' W 015°38'  
Track history (hours):
 
Tides and Currents Weather Stations Pressure Air Temp Water Temp Dewpoint Dewpoint Depression Visibility Wind Speed Wind Dir Waves Ship Positions

Cmb Kristine

Last reported at 2017-Oct-18 23:30 UTC. Time now 2017-Oct-18 23:40 UTC.
Position N 31°22' E 032°19'.

Length 180 m; draft 9.9 m.

Type: Cargo ship. MMSI: 477346300.

Date/timePositionNaut miles runAvg speedWind from/ knotsBaromVisibWave heightAir tempDewpointWater temp
2017-Oct-18 23:30N 31°22' E 032°19'0 0.1
2017-Oct-18 21:13N 31°22' E 032°19'0 0.0
2017-Oct-18 20:52N 31°22' E 032°19'0 0.0
2017-Oct-18 12:37N 31°22' E 032°19'0 0.0
2017-Oct-18 12:25N 31°22' E 032°19'  
2017-Oct-15 02:06N 36°11' E 014°53'112.7
2017-Oct-15 02:00N 36°11' E 014°52'612.9
2017-Oct-15 01:30N 36°14' E 014°45'612.9
2017-Oct-15 01:00N 36°16' E 014°37'712.9
2017-Oct-15 00:30N 36°18' E 014°29'613.0
2017-Oct-15 00:00N 36°20' E 014°22'712.9
2017-Oct-14 23:30N 36°22' E 014°14'613.0
2017-Oct-14 23:00N 36°24' E 014°06'713.0
2017-Oct-14 22:30N 36°27' E 013°59'613.1
2017-Oct-14 22:00N 36°29' E 013°51'713.0
2017-Oct-14 21:27N 36°31' E 013°43'612.9
2017-Oct-14 21:00N 36°33' E 013°36'4412.7
2017-Oct-14 17:33N 36°47' E 012°45'412.7
2017-Oct-14 17:15N 36°49' E 012°40'30012.1
2017-Oct-13 16:34N 37°24' E 006°27'3212.3
2017-Oct-13 13:57N 37°22' E 005°47'712.2
2017-Oct-13 13:22N 37°22' E 005°38'612.1
2017-Oct-13 12:51N 37°21' E 005°30'12112.5
2017-Oct-13 03:08N 37°14' E 002°58'212.6
2017-Oct-13 02:58N 37°14' E 002°55'612.4
2017-Oct-13 02:30N 37°13' E 002°48'612.2
2017-Oct-13 02:00N 37°12' E 002°40'712.3
2017-Oct-13 01:27N 37°11' E 002°32'912.5
2017-Oct-13 00:45N 37°09' E 002°21'312.5
2017-Oct-13 00:29N 37°09' E 002°17'612.3
2017-Oct-12 23:58N 37°07' E 002°09'612.5
2017-Oct-12 23:30N 37°06' E 002°02'612.5
2017-Oct-12 23:00N 37°04' E 001°55'712.4
2017-Oct-12 22:27N 37°02' E 001°46'1112.3
2017-Oct-12 21:32N 37°01' E 001°33'012.2
2017-Oct-12 21:30N 37°01' E 001°32'612.3
2017-Oct-12 21:00N 36°60' E 001°25'612.4
2017-Oct-12 20:30N 36°59' E 001°17'612.1
2017-Oct-12 19:59N 36°57' E 001°09'612.0
2017-Oct-12 19:30N 36°56' E 001°02'612.0
2017-Oct-12 19:00N 36°55' E 000°55'611.9
2017-Oct-12 18:30N 36°53' E 000°48'612.2
2017-Oct-12 18:00N 36°52' E 000°40'612.4
2017-Oct-12 17:30N 36°50' E 000°33'612.3
2017-Oct-12 17:00N 36°49' E 000°25'612.5
2017-Oct-12 16:30N 36°47' E 000°18'612.6
2017-Oct-12 16:00N 36°45' E 000°10'612.6
2017-Oct-12 15:30N 36°44' E 000°03'612.5
2017-Oct-12 15:00N 36°42' W 000°05'712.4
2017-Oct-12 14:29N 36°40' W 000°12'612.4
2017-Oct-12 14:00N 36°38' W 000°20'612.6
2017-Oct-12 13:30N 36°37' W 000°27'612.6
2017-Oct-12 13:00N 36°35' W 000°35'712.6
2017-Oct-12 12:27N 36°33' W 000°43'1412.6
2017-Oct-12 11:18N 36°29' W 001°00'1612.7
2017-Oct-12 10:01N 36°25' W 001°20'213.1
2017-Oct-12 09:50N 36°25' W 001°23'18412.8
2017-Oct-11 19:29N 36°03' W 005°10'613.2
2017-Oct-11 19:00N 36°03' W 005°17'5 8.5
2017-Oct-11 18:28N 36°07' W 005°21'66 3.2
2017-Oct-10 21:24N 35°51' W 006°41'511.5
2017-Oct-10 21:01N 35°50' W 006°47'611.9
2017-Oct-10 20:30N 35°49' W 006°54'612.3
2017-Oct-10 20:00N 35°48' W 007°01'612.3
2017-Oct-10 19:31N 35°46' W 007°09'612.4
2017-Oct-10 19:01N 35°45' W 007°16'612.5
2017-Oct-10 18:31N 35°44' W 007°24'712.7
2017-Oct-10 18:00N 35°43' W 007°32'612.6
2017-Oct-10 17:29N 35°43' W 007°40'612.4
2017-Oct-10 17:00N 35°42' W 007°47'612.4
2017-Oct-10 16:30N 35°41' W 007°55'612.4
2017-Oct-10 16:00N 35°39' W 008°02'612.6
2017-Oct-10 15:30N 35°38' W 008°10'612.7
2017-Oct-10 15:00N 35°37' W 008°17'1312.7
2017-Oct-10 14:00N 35°35' W 008°33'612.7
2017-Oct-10 13:30N 35°34' W 008°40'612.4
2017-Oct-10 13:01N 35°33' W 008°48'612.1
2017-Oct-10 12:29N 35°32' W 008°55'612.1
2017-Oct-10 11:59N 35°31' W 009°03'611.9
2017-Oct-10 11:31N 35°31' W 009°10'611.7
2017-Oct-10 11:00N 35°30' W 009°17'611.8
2017-Oct-10 10:30N 35°30' W 009°24'611.9
2017-Oct-10 10:01N 35°29' W 009°31'612.0
2017-Oct-10 09:31N 35°27' W 009°38'612.2
2017-Oct-10 09:00N 35°26' W 009°46'612.2
2017-Oct-10 08:30N 35°25' W 009°53'612.1
2017-Oct-10 08:00N 35°24' W 010°00'612.1
2017-Oct-10 07:31N 35°23' W 010°08'612.2
2017-Oct-10 07:01N 35°21' W 010°15'612.4
2017-Oct-10 06:30N 35°20' W 010°22'612.6
2017-Oct-10 06:00N 35°19' W 010°30'612.6
2017-Oct-10 05:30N 35°18' W 010°38'612.5
2017-Oct-10 05:00N 35°17' W 010°45'712.3
2017-Oct-10 04:26N 35°16' W 010°54'512.5
2017-Oct-10 04:00N 35°15' W 011°00'612.5
2017-Oct-10 03:30N 35°14' W 011°08'612.5
2017-Oct-10 03:00N 35°13' W 011°15'612.4
2017-Oct-10 02:30N 35°12' W 011°23'612.4
2017-Oct-10 02:00N 35°11' W 011°30'612.4
2017-Oct-10 01:30N 35°10' W 011°38'612.4
2017-Oct-10 01:00N 35°08' W 011°45'611.9
2017-Oct-10 00:30N 35°07' W 011°52'612.0
2017-Oct-10 00:01N 35°07' W 011°59'612.4
2017-Oct-09 23:30N 35°05' W 012°07'612.5
2017-Oct-09 23:01N 35°04' W 012°14'612.4
2017-Oct-09 22:30N 35°03' W 012°22'612.4
2017-Oct-09 22:00N 35°02' W 012°29'612.1
2017-Oct-09 21:28N 35°01' W 012°37'612.0
2017-Oct-09 21:00N 35°00' W 012°44'612.1
2017-Oct-09 20:30N 34°59' W 012°51'612.2
2017-Oct-09 20:00N 34°58' W 012°58'612.3
2017-Oct-09 19:30N 34°57' W 013°06'1212.4
2017-Oct-09 18:33N 34°55' W 013°20'11512.2
2017-Oct-09 09:08N 34°36' W 015°38'  

Dump ship's entire track history